sensor_id;sensor_type;location;lat;lon;timestamp;P1;durP1;ratioP1;P2;durP2;ratioP2
24644;SDS011;12780;45.502;9.146;2022-09-09T00:01:33;21.42;;;10.02;;
24644;SDS011;12780;45.502;9.146;2022-09-09T00:06:50;18.85;;;10.75;;
24644;SDS011;12780;45.502;9.146;2022-09-09T00:09:45;16.70;;;10.27;;
24644;SDS011;12780;45.502;9.146;2022-09-09T00:12:20;19.48;;;11.43;;
24644;SDS011;12780;45.502;9.146;2022-09-09T00:15:18;16.70;;;10.18;;
24644;SDS011;12780;45.502;9.146;2022-09-09T00:17:47;19.55;;;11.00;;
24644;SDS011;12780;45.502;9.146;2022-09-09T00:20:25;20.42;;;10.48;;
24644;SDS011;12780;45.502;9.146;2022-09-09T00:22:58;20.48;;;11.07;;
24644;SDS011;12780;45.502;9.146;2022-09-09T00:28:02;17.38;;;10.63;;
24644;SDS011;12780;45.502;9.146;2022-09-09T00:30:33;15.77;;;10.75;;
24644;SDS011;12780;45.502;9.146;2022-09-09T00:33:09;22.98;;;11.95;;
24644;SDS011;12780;45.502;9.146;2022-09-09T00:35:41;20.75;;;10.43;;
24644;SDS011;12780;45.502;9.146;2022-09-09T00:38:38;20.38;;;11.57;;
24644;SDS011;12780;45.502;9.146;2022-09-09T00:41:21;23.73;;;11.52;;
24644;SDS011;12780;45.502;9.146;2022-09-09T00:58:17;19.85;;;12.35;;
24644;SDS011;12780;45.502;9.146;2022-09-09T01:00:44;22.33;;;12.60;;
24644;SDS011;12780;45.502;9.146;2022-09-09T01:03:34;20.92;;;12.07;;
24644;SDS011;12780;45.502;9.146;2022-09-09T01:17:08;20.67;;;12.38;;
24644;SDS011;12780;45.502;9.146;2022-09-09T01:22:41;19.38;;;12.43;;
24644;SDS011;12780;45.502;9.146;2022-09-09T01:28:34;28.75;;;14.38;;
24644;SDS011;12780;45.502;9.146;2022-09-09T01:31:02;25.10;;;13.10;;
24644;SDS011;12780;45.502;9.146;2022-09-09T01:33:30;19.98;;;13.00;;
24644;SDS011;12780;45.502;9.146;2022-09-09T01:38:28;24.13;;;13.60;;
24644;SDS011;12780;45.502;9.146;2022-09-09T01:40:54;22.02;;;14.50;;
24644;SDS011;12780;45.502;9.146;2022-09-09T01:43:21;28.92;;;13.95;;
24644;SDS011;12780;45.502;9.146;2022-09-09T01:45:47;24.13;;;13.55;;
24644;SDS011;12780;45.502;9.146;2022-09-09T01:48:17;21.42;;;14.02;;
24644;SDS011;12780;45.502;9.146;2022-09-09T01:50:44;22.77;;;13.77;;
24644;SDS011;12780;45.502;9.146;2022-09-09T01:53:09;23.67;;;13.50;;
24644;SDS011;12780;45.502;9.146;2022-09-09T01:55:40;24.08;;;13.02;;
24644;SDS011;12780;45.502;9.146;2022-09-09T02:00:46;22.02;;;13.63;;
24644;SDS011;12780;45.502;9.146;2022-09-09T02:03:31;24.58;;;12.90;;
24644;SDS011;12780;45.502;9.146;2022-09-09T02:08:45;22.40;;;12.48;;
24644;SDS011;12780;45.502;9.146;2022-09-09T02:11:18;21.27;;;12.52;;
24644;SDS011;12780;45.502;9.146;2022-09-09T02:13:45;22.98;;;12.38;;
24644;SDS011;12780;45.502;9.146;2022-09-09T02:16:26;24.42;;;12.93;;
24644;SDS011;12780;45.502;9.146;2022-09-09T02:21:30;25.83;;;12.20;;
24644;SDS011;12780;45.502;9.146;2022-09-09T02:23:58;17.98;;;11.45;;
24644;SDS011;12780;45.502;9.146;2022-09-09T02:26:25;20.95;;;12.20;;
24644;SDS011;12780;45.502;9.146;2022-09-09T02:28:52;24.10;;;11.52;;
24644;SDS011;12780;45.502;9.146;2022-09-09T02:31:23;21.58;;;11.30;;
24644;SDS011;12780;45.502;9.146;2022-09-09T02:33:57;21.92;;;11.95;;
24644;SDS011;12780;45.502;9.146;2022-09-09T02:36:26;23.83;;;12.43;;
24644;SDS011;12780;45.502;9.146;2022-09-09T02:38:56;23.35;;;12.50;;
24644;SDS011;12780;45.502;9.146;2022-09-09T02:41:33;22.02;;;12.10;;
24644;SDS011;12780;45.502;9.146;2022-09-09T02:44:00;20.92;;;11.02;;
24644;SDS011;12780;45.502;9.146;2022-09-09T02:51:48;22.25;;;12.15;;
24644;SDS011;12780;45.502;9.146;2022-09-09T02:54:31;22.88;;;12.38;;
24644;SDS011;12780;45.502;9.146;2022-09-09T02:57:04;24.15;;;13.10;;
24644;SDS011;12780;45.502;9.146;2022-09-09T02:59:35;22.23;;;13.35;;
24644;SDS011;12780;45.502;9.146;2022-09-09T03:02:01;25.90;;;15.15;;
24644;SDS011;12780;45.502;9.146;2022-09-09T03:04:27;23.02;;;13.38;;
24644;SDS011;12780;45.502;9.146;2022-09-09T03:06:53;26.25;;;14.45;;
24644;SDS011;12780;45.502;9.146;2022-09-09T03:09:19;31.38;;;16.17;;
24644;SDS011;12780;45.502;9.146;2022-09-09T03:11:45;27.98;;;15.75;;
24644;SDS011;12780;45.502;9.146;2022-09-09T03:14:10;25.92;;;15.80;;
24644;SDS011;12780;45.502;9.146;2022-09-09T03:16:36;32.00;;;16.08;;
24644;SDS011;12780;45.502;9.146;2022-09-09T03:19:02;32.65;;;18.33;;
24644;SDS011;12780;45.502;9.146;2022-09-09T03:21:28;29.15;;;18.60;;
24644;SDS011;12780;45.502;9.146;2022-09-09T03:23:53;27.10;;;18.08;;
24644;SDS011;12780;45.502;9.146;2022-09-09T03:26:19;30.98;;;18.98;;
24644;SDS011;12780;45.502;9.146;2022-09-09T03:28:45;31.77;;;18.50;;
24644;SDS011;12780;45.502;9.146;2022-09-09T03:31:11;30.63;;;18.35;;
24644;SDS011;12780;45.502;9.146;2022-09-09T03:33:37;29.85;;;18.17;;
24644;SDS011;12780;45.502;9.146;2022-09-09T03:36:03;28.70;;;19.20;;
24644;SDS011;12780;45.502;9.146;2022-09-09T03:38:29;28.10;;;17.13;;
24644;SDS011;12780;45.502;9.146;2022-09-09T03:40:56;28.98;;;17.90;;
24644;SDS011;12780;45.502;9.146;2022-09-09T03:43:25;29.55;;;18.55;;
24644;SDS011;12780;45.502;9.146;2022-09-09T03:45:51;27.20;;;18.02;;
24644;SDS011;12780;45.502;9.146;2022-09-09T03:48:17;33.67;;;17.98;;
24644;SDS011;12780;45.502;9.146;2022-09-09T03:50:47;29.88;;;17.60;;
24644;SDS011;12780;45.502;9.146;2022-09-09T03:53:15;33.05;;;17.55;;
24644;SDS011;12780;45.502;9.146;2022-09-09T03:55:47;27.80;;;15.48;;
24644;SDS011;12780;45.502;9.146;2022-09-09T03:58:15;32.20;;;16.50;;
24644;SDS011;12780;45.502;9.146;2022-09-09T04:00:41;32.53;;;16.85;;
24644;SDS011;12780;45.502;9.146;2022-09-09T04:03:10;28.08;;;17.40;;
24644;SDS011;12780;45.502;9.146;2022-09-09T04:05:36;33.03;;;17.55;;
24644;SDS011;12780;45.502;9.146;2022-09-09T04:08:07;34.42;;;18.80;;
24644;SDS011;12780;45.502;9.146;2022-09-09T04:10:33;32.58;;;18.70;;
24644;SDS011;12780;45.502;9.146;2022-09-09T04:13:02;34.38;;;18.90;;
24644;SDS011;12780;45.502;9.146;2022-09-09T04:15:28;30.90;;;18.58;;
24644;SDS011;12780;45.502;9.146;2022-09-09T04:17:54;30.38;;;17.85;;
24644;SDS011;12780;45.502;9.146;2022-09-09T04:20:20;32.97;;;19.88;;
24644;SDS011;12780;45.502;9.146;2022-09-09T04:22:47;33.95;;;19.95;;
24644;SDS011;12780;45.502;9.146;2022-09-09T04:25:12;35.85;;;20.27;;
24644;SDS011;12780;45.502;9.146;2022-09-09T04:27:38;31.63;;;19.42;;
24644;SDS011;12780;45.502;9.146;2022-09-09T04:30:05;29.23;;;17.33;;
24644;SDS011;12780;45.502;9.146;2022-09-09T04:32:32;34.22;;;18.55;;
24644;SDS011;12780;45.502;9.146;2022-09-09T04:35:01;28.10;;;17.60;;
24644;SDS011;12780;45.502;9.146;2022-09-09T04:37:28;35.28;;;18.08;;
24644;SDS011;12780;45.502;9.146;2022-09-09T04:39:53;26.88;;;16.80;;
24644;SDS011;12780;45.502;9.146;2022-09-09T04:42:19;30.45;;;17.63;;
24644;SDS011;12780;45.502;9.146;2022-09-09T04:44:44;31.25;;;18.02;;
24644;SDS011;12780;45.502;9.146;2022-09-09T04:47:10;32.70;;;17.33;;
24644;SDS011;12780;45.502;9.146;2022-09-09T04:49:36;29.08;;;16.45;;
24644;SDS011;12780;45.502;9.146;2022-09-09T04:52:02;27.50;;;17.08;;
24644;SDS011;12780;45.502;9.146;2022-09-09T04:54:28;28.65;;;18.77;;
24644;SDS011;12780;45.502;9.146;2022-09-09T04:56:54;30.83;;;18.75;;
24644;SDS011;12780;45.502;9.146;2022-09-09T04:59:20;30.70;;;19.40;;
24644;SDS011;12780;45.502;9.146;2022-09-09T05:01:46;31.13;;;17.90;;
24644;SDS011;12780;45.502;9.146;2022-09-09T05:04:12;29.33;;;18.55;;
24644;SDS011;12780;45.502;9.146;2022-09-09T05:06:40;35.00;;;18.52;;
24644;SDS011;12780;45.502;9.146;2022-09-09T05:09:07;32.53;;;18.67;;
24644;SDS011;12780;45.502;9.146;2022-09-09T05:11:33;34.17;;;19.10;;
24644;SDS011;12780;45.502;9.146;2022-09-09T05:14:02;30.45;;;19.45;;
24644;SDS011;12780;45.502;9.146;2022-09-09T05:16:28;29.85;;;18.65;;
24644;SDS011;12780;45.502;9.146;2022-09-09T05:18:55;32.38;;;19.50;;
24644;SDS011;12780;45.502;9.146;2022-09-09T05:21:21;35.97;;;20.00;;
24644;SDS011;12780;45.502;9.146;2022-09-09T05:23:49;36.78;;;20.90;;
24644;SDS011;12780;45.502;9.146;2022-09-09T05:26:17;38.78;;;21.77;;
24644;SDS011;12780;45.502;9.146;2022-09-09T05:28:44;38.17;;;22.45;;
24644;SDS011;12780;45.502;9.146;2022-09-09T05:31:10;37.80;;;21.98;;
24644;SDS011;12780;45.502;9.146;2022-09-09T05:33:38;39.38;;;22.25;;
24644;SDS011;12780;45.502;9.146;2022-09-09T05:36:09;31.88;;;20.30;;
24644;SDS011;12780;45.502;9.146;2022-09-09T05:38:38;34.85;;;20.30;;
24644;SDS011;12780;45.502;9.146;2022-09-09T05:41:04;36.13;;;20.27;;
24644;SDS011;12780;45.502;9.146;2022-09-09T05:43:31;34.20;;;19.48;;
24644;SDS011;12780;45.502;9.146;2022-09-09T05:48:34;16.92;;;10.55;;
24644;SDS011;12780;45.502;9.146;2022-09-09T05:51:01;16.20;;;9.80;;
24644;SDS011;12780;45.502;9.146;2022-09-09T05:53:31;13.85;;;8.65;;
24644;SDS011;12780;45.502;9.146;2022-09-09T05:55:59;11.30;;;6.28;;
24644;SDS011;12780;45.502;9.146;2022-09-09T05:58:30;11.55;;;5.88;;
24644;SDS011;12780;45.502;9.146;2022-09-09T06:01:03;8.68;;;5.90;;
24644;SDS011;12780;45.502;9.146;2022-09-09T06:03:31;10.43;;;6.65;;
24644;SDS011;12780;45.502;9.146;2022-09-09T06:06:01;10.95;;;6.05;;
24644;SDS011;12780;45.502;9.146;2022-09-09T06:08:30;7.60;;;4.22;;
24644;SDS011;12780;45.502;9.146;2022-09-09T06:11:09;9.00;;;4.57;;
24644;SDS011;12780;45.502;9.146;2022-09-09T06:13:37;6.82;;;3.55;;
24644;SDS011;12780;45.502;9.146;2022-09-09T06:16:04;7.57;;;3.00;;
24644;SDS011;12780;45.502;9.146;2022-09-09T06:18:37;5.90;;;3.70;;
24644;SDS011;12780;45.502;9.146;2022-09-09T06:21:04;7.90;;;3.13;;
24644;SDS011;12780;45.502;9.146;2022-09-09T06:23:31;6.32;;;2.60;;
24644;SDS011;12780;45.502;9.146;2022-09-09T06:26:01;4.38;;;2.78;;
24644;SDS011;12780;45.502;9.146;2022-09-09T06:28:30;11.05;;;2.53;;
24644;SDS011;12780;45.502;9.146;2022-09-09T06:31:03;7.43;;;2.50;;
24644;SDS011;12780;45.502;9.146;2022-09-09T06:33:30;4.35;;;2.47;;
24644;SDS011;12780;45.502;9.146;2022-09-09T06:35:57;6.45;;;2.33;;
24644;SDS011;12780;45.502;9.146;2022-09-09T06:38:23;5.70;;;2.85;;
24644;SDS011;12780;45.502;9.146;2022-09-09T06:40:52;6.10;;;2.53;;
24644;SDS011;12780;45.502;9.146;2022-09-09T06:43:19;7.30;;;2.70;;
24644;SDS011;12780;45.502;9.146;2022-09-09T06:45:52;7.75;;;2.75;;
24644;SDS011;12780;45.502;9.146;2022-09-09T06:48:19;6.47;;;3.00;;
24644;SDS011;12780;45.502;9.146;2022-09-09T06:50:45;14.75;;;3.20;;
24644;SDS011;12780;45.502;9.146;2022-09-09T06:53:11;10.48;;;3.70;;
24644;SDS011;12780;45.502;9.146;2022-09-09T06:55:36;11.90;;;3.53;;
24644;SDS011;12780;45.502;9.146;2022-09-09T06:58:02;14.18;;;4.05;;
24644;SDS011;12780;45.502;9.146;2022-09-09T07:00:32;12.75;;;3.88;;
24644;SDS011;12780;45.502;9.146;2022-09-09T07:02:58;6.47;;;3.08;;
24644;SDS011;12780;45.502;9.146;2022-09-09T07:05:23;5.93;;;3.67;;
24644;SDS011;12780;45.502;9.146;2022-09-09T07:07:50;8.43;;;3.53;;
24644;SDS011;12780;45.502;9.146;2022-09-09T07:10:17;5.97;;;4.20;;
24644;SDS011;12780;45.502;9.146;2022-09-09T07:12:43;9.95;;;3.90;;
24644;SDS011;12780;45.502;9.146;2022-09-09T07:15:09;12.75;;;4.18;;
24644;SDS011;12780;45.502;9.146;2022-09-09T07:17:34;7.80;;;4.47;;
24644;SDS011;12780;45.502;9.146;2022-09-09T07:20:00;14.07;;;4.32;;
24644;SDS011;12780;45.502;9.146;2022-09-09T07:22:27;12.50;;;4.35;;
24644;SDS011;12780;45.502;9.146;2022-09-09T07:24:53;14.45;;;4.15;;
24644;SDS011;12780;45.502;9.146;2022-09-09T07:27:19;10.73;;;4.30;;
24644;SDS011;12780;45.502;9.146;2022-09-09T07:29:44;9.73;;;4.40;;
24644;SDS011;12780;45.502;9.146;2022-09-09T07:32:10;11.43;;;4.40;;
24644;SDS011;12780;45.502;9.146;2022-09-09T07:34:36;11.18;;;4.30;;
24644;SDS011;12780;45.502;9.146;2022-09-09T07:37:02;7.80;;;4.47;;
24644;SDS011;12780;45.502;9.146;2022-09-09T07:39:27;9.60;;;6.25;;
24644;SDS011;12780;45.502;9.146;2022-09-09T07:41:53;9.38;;;5.68;;
24644;SDS011;12780;45.502;9.146;2022-09-09T07:44:22;12.75;;;6.88;;
24644;SDS011;12780;45.502;9.146;2022-09-09T07:46:52;17.92;;;6.93;;
24644;SDS011;12780;45.502;9.146;2022-09-09T07:49:18;12.00;;;6.03;;
24644;SDS011;12780;45.502;9.146;2022-09-09T07:51:44;11.75;;;6.93;;
24644;SDS011;12780;45.502;9.146;2022-09-09T07:54:13;9.07;;;5.97;;
24644;SDS011;12780;45.502;9.146;2022-09-09T07:56:40;10.32;;;5.78;;
24644;SDS011;12780;45.502;9.146;2022-09-09T07:59:07;13.32;;;6.00;;
24644;SDS011;12780;45.502;9.146;2022-09-09T08:01:39;10.65;;;5.65;;
24644;SDS011;12780;45.502;9.146;2022-09-09T08:04:09;12.95;;;4.85;;
24644;SDS011;12780;45.502;9.146;2022-09-09T08:06:40;11.35;;;4.38;;
24644;SDS011;12780;45.502;9.146;2022-09-09T08:09:09;7.32;;;3.70;;
24644;SDS011;12780;45.502;9.146;2022-09-09T08:11:35;7.80;;;4.20;;
24644;SDS011;12780;45.502;9.146;2022-09-09T08:14:02;6.68;;;3.78;;
24644;SDS011;12780;45.502;9.146;2022-09-09T08:16:29;6.53;;;3.70;;
24644;SDS011;12780;45.502;9.146;2022-09-09T08:18:57;8.77;;;3.80;;
24644;SDS011;12780;45.502;9.146;2022-09-09T08:21:27;9.55;;;3.47;;
24644;SDS011;12780;45.502;9.146;2022-09-09T08:23:54;11.13;;;3.53;;
24644;SDS011;12780;45.502;9.146;2022-09-09T08:26:22;7.97;;;3.40;;
24644;SDS011;12780;45.502;9.146;2022-09-09T08:28:50;7.78;;;3.35;;
24644;SDS011;12780;45.502;9.146;2022-09-09T08:31:18;10.40;;;3.00;;
24644;SDS011;12780;45.502;9.146;2022-09-09T08:33:45;9.88;;;3.22;;
24644;SDS011;12780;45.502;9.146;2022-09-09T08:36:13;8.52;;;3.05;;
24644;SDS011;12780;45.502;9.146;2022-09-09T08:38:42;8.25;;;2.63;;
24644;SDS011;12780;45.502;9.146;2022-09-09T08:43:58;8.85;;;3.05;;
24644;SDS011;12780;45.502;9.146;2022-09-09T08:52:39;6.65;;;2.60;;
24644;SDS011;12780;45.502;9.146;2022-09-09T08:58:02;7.45;;;2.75;;
24644;SDS011;12780;45.502;9.146;2022-09-09T09:03:55;8.57;;;2.60;;
24644;SDS011;12780;45.502;9.146;2022-09-09T09:06:47;7.80;;;2.25;;
24644;SDS011;12780;45.502;9.146;2022-09-09T09:11:59;6.68;;;2.33;;
24644;SDS011;12780;45.502;9.146;2022-09-09T09:14:30;4.45;;;2.10;;
24644;SDS011;12780;45.502;9.146;2022-09-09T09:19:42;2.25;;;1.10;;
24644;SDS011;12780;45.502;9.146;2022-09-09T09:30:35;2.85;;;1.25;;
24644;SDS011;12780;45.502;9.146;2022-09-09T09:33:18;3.45;;;1.20;;
24644;SDS011;12780;45.502;9.146;2022-09-09T09:35:45;3.78;;;1.30;;
24644;SDS011;12780;45.502;9.146;2022-09-09T09:38:50;5.35;;;1.50;;
24644;SDS011;12780;45.502;9.146;2022-09-09T09:41:03;2.58;;;1.38;;
24644;SDS011;12780;45.502;9.146;2022-09-09T09:43:32;3.50;;;1.30;;
24644;SDS011;12780;45.502;9.146;2022-09-09T09:46:00;3.28;;;1.45;;
24644;SDS011;12780;45.502;9.146;2022-09-09T09:48:28;3.25;;;1.40;;
24644;SDS011;12780;45.502;9.146;2022-09-09T09:50:55;3.20;;;1.30;;
24644;SDS011;12780;45.502;9.146;2022-09-09T09:53:25;5.40;;;1.75;;
24644;SDS011;12780;45.502;9.146;2022-09-09T09:55:59;10.48;;;2.35;;
24644;SDS011;12780;45.502;9.146;2022-09-09T09:58:31;5.80;;;2.60;;
24644;SDS011;12780;45.502;9.146;2022-09-09T10:01:03;4.45;;;1.40;;
24644;SDS011;12780;45.502;9.146;2022-09-09T10:03:30;9.55;;;2.10;;
24644;SDS011;12780;45.502;9.146;2022-09-09T10:05:57;6.97;;;1.80;;
24644;SDS011;12780;45.502;9.146;2022-09-09T10:08:24;3.65;;;2.05;;
24644;SDS011;12780;45.502;9.146;2022-09-09T10:10:53;4.18;;;2.20;;
24644;SDS011;12780;45.502;9.146;2022-09-09T10:19:30;4.70;;;1.33;;
24644;SDS011;12780;45.502;9.146;2022-09-09T10:27:47;2.28;;;1.38;;
24644;SDS011;12780;45.502;9.146;2022-09-09T10:30:52;2.40;;;1.65;;
24644;SDS011;12780;45.502;9.146;2022-09-09T10:33:33;4.18;;;1.90;;
24644;SDS011;12780;45.502;9.146;2022-09-09T10:41:44;5.72;;;1.80;;
24644;SDS011;12780;45.502;9.146;2022-09-09T10:52:19;6.15;;;1.80;;
24644;SDS011;12780;45.502;9.146;2022-09-09T10:55:16;5.70;;;1.63;;
24644;SDS011;12780;45.502;9.146;2022-09-09T10:57:48;2.85;;;1.98;;
24644;SDS011;12780;45.502;9.146;2022-09-09T11:00:24;6.78;;;2.10;;
24644;SDS011;12780;45.502;9.146;2022-09-09T11:03:02;5.55;;;1.80;;
24644;SDS011;12780;45.502;9.146;2022-09-09T11:05:45;16.52;;;4.88;;
24644;SDS011;12780;45.502;9.146;2022-09-09T11:08:21;5.63;;;1.92;;
24644;SDS011;12780;45.502;9.146;2022-09-09T11:16:48;7.30;;;2.45;;
24644;SDS011;12780;45.502;9.146;2022-09-09T11:19:34;5.47;;;1.85;;
24644;SDS011;12780;45.502;9.146;2022-09-09T11:24:41;4.65;;;1.98;;
24644;SDS011;12780;45.502;9.146;2022-09-09T11:27:20;5.30;;;1.52;;
24644;SDS011;12780;45.502;9.146;2022-09-09T11:38:26;8.65;;;2.08;;
24644;SDS011;12780;45.502;9.146;2022-09-09T11:41:06;4.15;;;1.63;;
24644;SDS011;12780;45.502;9.146;2022-09-09T11:46:14;3.38;;;1.70;;
24644;SDS011;12780;45.502;9.146;2022-09-09T11:48:56;3.88;;;1.45;;
24644;SDS011;12780;45.502;9.146;2022-09-09T11:51:29;9.70;;;1.67;;
24644;SDS011;12780;45.502;9.146;2022-09-09T11:53:59;5.05;;;1.73;;
24644;SDS011;12780;45.502;9.146;2022-09-09T11:56:43;8.13;;;2.22;;
24644;SDS011;12780;45.502;9.146;2022-09-09T11:59:19;6.93;;;1.60;;
24644;SDS011;12780;45.502;9.146;2022-09-09T12:01:59;6.33;;;1.60;;
24644;SDS011;12780;45.502;9.146;2022-09-09T12:04:37;7.38;;;1.90;;
24644;SDS011;12780;45.502;9.146;2022-09-09T12:14:44;6.43;;;1.90;;
24644;SDS011;12780;45.502;9.146;2022-09-09T12:17:23;6.75;;;2.65;;
24644;SDS011;12780;45.502;9.146;2022-09-09T12:20:04;6.38;;;2.00;;
24644;SDS011;12780;45.502;9.146;2022-09-09T12:28:11;3.20;;;1.65;;
24644;SDS011;12780;45.502;9.146;2022-09-09T12:30:55;8.10;;;2.13;;
24644;SDS011;12780;45.502;9.146;2022-09-09T12:33:36;8.52;;;1.90;;
24644;SDS011;12780;45.502;9.146;2022-09-09T12:36:09;4.65;;;1.75;;
24644;SDS011;12780;45.502;9.146;2022-09-09T12:38:39;2.88;;;1.33;;
24644;SDS011;12780;45.502;9.146;2022-09-09T12:41:05;4.05;;;1.63;;
24644;SDS011;12780;45.502;9.146;2022-09-09T12:43:44;4.47;;;1.60;;
24644;SDS011;12780;45.502;9.146;2022-09-09T12:46:12;8.18;;;1.88;;
24644;SDS011;12780;45.502;9.146;2022-09-09T12:48:55;4.78;;;1.90;;
24644;SDS011;12780;45.502;9.146;2022-09-09T12:51:27;5.53;;;1.70;;
24644;SDS011;12780;45.502;9.146;2022-09-09T12:53:55;6.30;;;1.70;;
24644;SDS011;12780;45.502;9.146;2022-09-09T12:56:30;4.85;;;1.95;;
24644;SDS011;12780;45.502;9.146;2022-09-09T12:58:57;3.25;;;1.67;;
24644;SDS011;12780;45.502;9.146;2022-09-09T13:01:27;4.10;;;1.90;;
24644;SDS011;12780;45.502;9.146;2022-09-09T13:03:56;3.72;;;1.63;;
24644;SDS011;12780;45.502;9.146;2022-09-09T13:06:23;6.07;;;2.35;;
24644;SDS011;12780;45.502;9.146;2022-09-09T13:08:57;5.88;;;1.88;;
24644;SDS011;12780;45.502;9.146;2022-09-09T13:14:03;4.45;;;1.90;;
24644;SDS011;12780;45.502;9.146;2022-09-09T13:16:30;4.78;;;1.90;;
24644;SDS011;12780;45.502;9.146;2022-09-09T13:19:13;6.95;;;1.98;;
24644;SDS011;12780;45.502;9.146;2022-09-09T13:29:54;4.85;;;2.25;;
24644;SDS011;12780;45.502;9.146;2022-09-09T13:32:21;7.50;;;2.28;;
24644;SDS011;12780;45.502;9.146;2022-09-09T13:34:52;7.18;;;1.92;;
24644;SDS011;12780;45.502;9.146;2022-09-09T13:37:33;3.75;;;1.80;;
24644;SDS011;12780;45.502;9.146;2022-09-09T13:40:01;5.53;;;1.60;;
24644;SDS011;12780;45.502;9.146;2022-09-09T13:42:28;5.07;;;1.73;;
24644;SDS011;12780;45.502;9.146;2022-09-09T13:44:56;5.03;;;1.65;;
24644;SDS011;12780;45.502;9.146;2022-09-09T13:47:34;3.95;;;1.80;;
24644;SDS011;12780;45.502;9.146;2022-09-09T13:52:51;7.40;;;2.47;;
24644;SDS011;12780;45.502;9.146;2022-09-09T13:55:19;3.70;;;1.77;;
24644;SDS011;12780;45.502;9.146;2022-09-09T13:57:57;7.65;;;1.75;;
24644;SDS011;12780;45.502;9.146;2022-09-09T14:00:28;5.13;;;1.60;;
24644;SDS011;12780;45.502;9.146;2022-09-09T14:02:56;5.55;;;1.70;;
24644;SDS011;12780;45.502;9.146;2022-09-09T14:05:22;3.30;;;2.03;;
24644;SDS011;12780;45.502;9.146;2022-09-09T14:07:48;4.75;;;1.80;;
24644;SDS011;12780;45.502;9.146;2022-09-09T14:10:14;7.20;;;1.75;;
24644;SDS011;12780;45.502;9.146;2022-09-09T14:12:40;6.28;;;1.60;;
24644;SDS011;12780;45.502;9.146;2022-09-09T14:15:07;6.57;;;2.00;;
24644;SDS011;12780;45.502;9.146;2022-09-09T14:17:35;5.47;;;2.03;;
24644;SDS011;12780;45.502;9.146;2022-09-09T14:20:01;6.28;;;1.70;;
24644;SDS011;12780;45.502;9.146;2022-09-09T14:22:27;3.65;;;1.80;;
24644;SDS011;12780;45.502;9.146;2022-09-09T14:24:53;3.45;;;1.65;;
24644;SDS011;12780;45.502;9.146;2022-09-09T14:27:19;8.43;;;1.90;;
24644;SDS011;12780;45.502;9.146;2022-09-09T14:29:44;3.50;;;1.50;;
24644;SDS011;12780;45.502;9.146;2022-09-09T14:32:10;7.38;;;1.65;;
24644;SDS011;12780;45.502;9.146;2022-09-09T14:34:36;8.38;;;1.95;;
24644;SDS011;12780;45.502;9.146;2022-09-09T14:37:02;4.72;;;1.40;;
24644;SDS011;12780;45.502;9.146;2022-09-09T14:39:28;3.58;;;1.73;;
24644;SDS011;12780;45.502;9.146;2022-09-09T14:41:53;6.25;;;1.83;;
24644;SDS011;12780;45.502;9.146;2022-09-09T14:44:19;3.58;;;1.80;;
24644;SDS011;12780;45.502;9.146;2022-09-09T14:46:45;8.25;;;2.72;;
24644;SDS011;12780;45.502;9.146;2022-09-09T14:49:10;2.50;;;1.65;;
24644;SDS011;12780;45.502;9.146;2022-09-09T14:51:37;3.65;;;1.55;;
24644;SDS011;12780;45.502;9.146;2022-09-09T14:54:03;4.82;;;1.60;;
24644;SDS011;12780;45.502;9.146;2022-09-09T14:56:29;5.63;;;1.60;;
24644;SDS011;12780;45.502;9.146;2022-09-09T14:58:57;5.97;;;1.60;;
24644;SDS011;12780;45.502;9.146;2022-09-09T15:01:25;9.68;;;1.50;;
24644;SDS011;12780;45.502;9.146;2022-09-09T15:03:53;4.32;;;1.75;;
24644;SDS011;12780;45.502;9.146;2022-09-09T15:06:21;3.05;;;1.38;;
24644;SDS011;12780;45.502;9.146;2022-09-09T15:08:48;2.70;;;1.48;;
24644;SDS011;12780;45.502;9.146;2022-09-09T15:11:16;4.03;;;1.67;;
24644;SDS011;12780;45.502;9.146;2022-09-09T15:13:43;7.65;;;1.70;;
24644;SDS011;12780;45.502;9.146;2022-09-09T15:18:39;3.65;;;1.63;;
24644;SDS011;12780;45.502;9.146;2022-09-09T15:21:07;6.35;;;1.77;;
24644;SDS011;12780;45.502;9.146;2022-09-09T15:23:35;4.30;;;1.58;;
24644;SDS011;12780;45.502;9.146;2022-09-09T15:26:00;8.05;;;1.58;;
24644;SDS011;12780;45.502;9.146;2022-09-09T15:28:27;4.35;;;1.85;;
24644;SDS011;12780;45.502;9.146;2022-09-09T15:30:53;4.22;;;1.50;;
24644;SDS011;12780;45.502;9.146;2022-09-09T15:33:21;1.95;;;1.38;;
24644;SDS011;12780;45.502;9.146;2022-09-09T15:35:47;2.85;;;1.40;;
24644;SDS011;12780;45.502;9.146;2022-09-09T15:38:13;3.47;;;1.63;;
24644;SDS011;12780;45.502;9.146;2022-09-09T15:40:40;4.50;;;1.60;;
24644;SDS011;12780;45.502;9.146;2022-09-09T15:43:05;7.07;;;1.65;;
24644;SDS011;12780;45.502;9.146;2022-09-09T15:45:32;3.30;;;1.58;;
24644;SDS011;12780;45.502;9.146;2022-09-09T15:47:59;3.10;;;1.70;;
24644;SDS011;12780;45.502;9.146;2022-09-09T15:50:25;3.35;;;1.58;;
24644;SDS011;12780;45.502;9.146;2022-09-09T15:52:51;5.43;;;1.73;;
24644;SDS011;12780;45.502;9.146;2022-09-09T15:55:18;4.65;;;1.80;;
24644;SDS011;12780;45.502;9.146;2022-09-09T15:57:45;5.13;;;1.70;;
24644;SDS011;12780;45.502;9.146;2022-09-09T16:00:11;3.13;;;1.50;;
24644;SDS011;12780;45.502;9.146;2022-09-09T16:02:38;7.63;;;1.80;;
24644;SDS011;12780;45.502;9.146;2022-09-09T16:05:04;4.90;;;1.45;;
24644;SDS011;12780;45.502;9.146;2022-09-09T16:07:30;6.45;;;2.90;;
24644;SDS011;12780;45.502;9.146;2022-09-09T16:09:56;3.35;;;1.83;;
24644;SDS011;12780;45.502;9.146;2022-09-09T16:12:21;2.63;;;1.63;;
24644;SDS011;12780;45.502;9.146;2022-09-09T16:14:47;3.72;;;1.80;;
24644;SDS011;12780;45.502;9.146;2022-09-09T16:17:12;5.20;;;1.73;;
24644;SDS011;12780;45.502;9.146;2022-09-09T16:19:39;3.40;;;1.95;;
24644;SDS011;12780;45.502;9.146;2022-09-09T16:22:05;4.05;;;1.90;;
24644;SDS011;12780;45.502;9.146;2022-09-09T16:24:31;3.70;;;2.00;;
24644;SDS011;12780;45.502;9.146;2022-09-09T16:26:57;6.97;;;1.90;;
24644;SDS011;12780;45.502;9.146;2022-09-09T16:29:23;4.32;;;1.60;;
24644;SDS011;12780;45.502;9.146;2022-09-09T16:31:52;3.28;;;1.80;;
24644;SDS011;12780;45.502;9.146;2022-09-09T16:34:18;2.72;;;1.60;;
24644;SDS011;12780;45.502;9.146;2022-09-09T16:36:45;4.10;;;1.77;;
24644;SDS011;12780;45.502;9.146;2022-09-09T16:39:13;5.05;;;1.85;;
24644;SDS011;12780;45.502;9.146;2022-09-09T16:41:41;4.75;;;1.90;;
24644;SDS011;12780;45.502;9.146;2022-09-09T16:44:08;5.05;;;1.92;;
24644;SDS011;12780;45.502;9.146;2022-09-09T16:46:35;7.10;;;2.03;;
24644;SDS011;12780;45.502;9.146;2022-09-09T16:49:06;4.35;;;1.80;;
24644;SDS011;12780;45.502;9.146;2022-09-09T16:51:34;2.72;;;1.55;;
24644;SDS011;12780;45.502;9.146;2022-09-09T16:54:05;4.18;;;1.90;;
24644;SDS011;12780;45.502;9.146;2022-09-09T16:56:32;4.22;;;2.00;;
24644;SDS011;12780;45.502;9.146;2022-09-09T16:59:02;5.13;;;1.98;;
24644;SDS011;12780;45.502;9.146;2022-09-09T17:01:31;7.55;;;2.33;;
24644;SDS011;12780;45.502;9.146;2022-09-09T17:04:00;5.95;;;2.60;;
24644;SDS011;12780;45.502;9.146;2022-09-09T17:06:28;5.15;;;1.90;;
24644;SDS011;12780;45.502;9.146;2022-09-09T17:08:55;8.02;;;2.53;;
24644;SDS011;12780;45.502;9.146;2022-09-09T17:11:22;5.38;;;2.00;;
24644;SDS011;12780;45.502;9.146;2022-09-09T17:13:50;8.32;;;2.20;;
24644;SDS011;12780;45.502;9.146;2022-09-09T17:16:17;7.78;;;2.60;;
24644;SDS011;12780;45.502;9.146;2022-09-09T17:18:46;7.18;;;2.78;;
24644;SDS011;12780;45.502;9.146;2022-09-09T17:21:14;7.93;;;4.05;;
24644;SDS011;12780;45.502;9.146;2022-09-09T17:23:43;10.85;;;2.72;;
24644;SDS011;12780;45.502;9.146;2022-09-09T17:26:11;3.47;;;1.77;;
24644;SDS011;12780;45.502;9.146;2022-09-09T17:28:39;3.47;;;1.92;;
24644;SDS011;12780;45.502;9.146;2022-09-09T17:31:06;6.35;;;2.20;;